createdAt,value
2022-10-07T00:00:00.175Z,1.0
2022-10-07T00:01:00.272Z,1.0
2022-10-07T00:02:00.252Z,1.0
2022-10-07T00:03:00.181Z,1.0
2022-10-07T00:04:00.145Z,1.0
2022-10-07T00:05:00.152Z,1.0
2022-10-07T00:06:03.430Z,1.0
2022-10-07T00:07:00.147Z,1.0
2022-10-07T00:08:00.151Z,1.0
2022-10-07T00:09:00.156Z,1.0
2022-10-07T00:10:00.396Z,1.0
2022-10-07T00:11:04.073Z,1.0
2022-10-07T00:12:00.158Z,1.0
2022-10-07T00:13:00.158Z,1.0
2022-10-07T00:14:02.051Z,1.0
2022-10-07T00:15:00.150Z,1.0
2022-10-07T00:16:01.900Z,1.0
2022-10-07T00:17:00.283Z,1.0
2022-10-07T00:18:00.156Z,1.0
2022-10-07T00:19:01.389Z,1.0
2022-10-07T00:20:00.150Z,1.0
2022-10-07T00:21:02.218Z,1.0
2022-10-07T00:22:00.151Z,1.0
2022-10-07T00:23:00.157Z,1.0
2022-10-07T00:24:00.531Z,1.0
2022-10-07T00:25:00.155Z,1.0
2022-10-07T00:26:01.271Z,1.0
2022-10-07T00:27:00.167Z,1.0
2022-10-07T00:28:00.219Z,0.8
2022-10-07T00:29:00.674Z,0.8
2022-10-07T00:30:00.216Z,0.8
2022-10-07T00:31:00.898Z,0.8
2022-10-07T00:32:00.149Z,0.8
2022-10-07T00:33:00.188Z,0.8
2022-10-07T00:34:00.513Z,0.8
2022-10-07T00:35:00.151Z,0.8
2022-10-07T00:36:00.211Z,0.8
2022-10-07T00:37:00.195Z,0.8
2022-10-07T00:38:00.186Z,0.8
2022-10-07T00:39:01.386Z,0.8
2022-10-07T00:40:00.155Z,0.8
2022-10-07T00:41:00.232Z,0.8
2022-10-07T00:42:00.170Z,0.8
2022-10-07T00:43:10.095Z,0.8
2022-10-07T00:44:10.093Z,0.8
2022-10-07T00:45:00.161Z,0.8
2022-10-07T00:46:04.743Z,0.8
2022-10-07T00:47:03.864Z,0.8
2022-10-07T00:48:00.220Z,0.9
2022-10-07T00:49:04.889Z,0.9
2022-10-07T00:50:05.867Z,0.9
2022-10-07T00:51:00.641Z,0.9
2022-10-07T00:52:00.249Z,0.9
2022-10-07T00:53:01.645Z,0.9
2022-10-07T00:54:01.215Z,0.9
2022-10-07T00:55:03.091Z,0.9
2022-10-07T00:56:00.950Z,0.9
2022-10-07T00:57:00.191Z,0.9
2022-10-07T00:58:01.606Z,0.9
2022-10-07T00:59:00.727Z,0.9
2022-10-07T01:00:00.994Z,0.9
2022-10-07T01:01:00.411Z,0.9
2022-10-07T01:02:00.431Z,0.9
2022-10-07T01:03:00.479Z,0.9
2022-10-07T01:04:00.305Z,0.9
2022-10-07T01:05:02.010Z,0.9
2022-10-07T01:06:00.632Z,0.9
2022-10-07T01:07:00.427Z,0.9
2022-10-07T01:08:00.298Z,1.7
2022-10-07T01:09:00.240Z,1.7
2022-10-07T01:10:00.401Z,1.7
2022-10-07T01:11:10.114Z,1.7
2022-10-07T01:12:06.550Z,1.7
2022-10-07T01:13:00.203Z,1.7
2022-10-07T01:14:05.485Z,1.7
2022-10-07T01:15:10.159Z,1.7
2022-10-07T01:16:09.287Z,1.7
2022-10-07T01:17:03.738Z,1.7
2022-10-07T01:18:06.060Z,1.7
2022-10-07T01:19:10.104Z,1.7
2022-10-07T01:20:10.165Z,1.7
2022-10-07T01:21:05.202Z,1.7
2022-10-07T01:22:10.101Z,1.7
2022-10-07T01:23:10.093Z,1.7
2022-10-07T01:24:00.164Z,1.7
2022-10-07T01:25:06.540Z,1.7
2022-10-07T01:26:07.573Z,1.7
2022-10-07T01:27:04.741Z,1.7
2022-10-07T01:28:05.740Z,1.0
2022-10-07T01:29:03.135Z,1.0
2022-10-07T01:30:03.024Z,1.0
2022-10-07T01:31:03.641Z,1.0
2022-10-07T01:32:02.375Z,1.0
2022-10-07T01:33:02.970Z,1.0
2022-10-07T01:34:01.771Z,1.0
2022-10-07T01:35:00.865Z,1.0
2022-10-07T01:36:05.645Z,1.0
2022-10-07T01:37:01.668Z,1.0
2022-10-07T01:38:04.010Z,1.0
2022-10-07T01:39:02.349Z,1.0
2022-10-07T01:40:04.221Z,1.0
2022-10-07T01:41:03.842Z,1.0
2022-10-07T01:42:00.198Z,1.0
2022-10-07T01:43:00.498Z,1.0
2022-10-07T01:44:00.380Z,1.0
2022-10-07T01:45:01.179Z,1.0
2022-10-07T01:46:01.223Z,1.0
2022-10-07T01:47:00.178Z,1.0
2022-10-07T01:48:00.592Z,1.1
2022-10-07T01:49:00.165Z,1.1
2022-10-07T01:50:00.185Z,1.1
2022-10-07T01:51:00.254Z,1.1
2022-10-07T01:52:10.089Z,1.1
2022-10-07T01:53:06.491Z,1.1
2022-10-07T01:54:00.145Z,1.1
2022-10-07T01:55:00.137Z,1.1
2022-10-07T01:56:01.145Z,1.1
2022-10-07T01:57:10.091Z,1.1
2022-10-07T01:58:10.092Z,1.1
2022-10-07T01:59:10.085Z,1.1
2022-10-07T02:00:04.348Z,1.1
2022-10-07T02:01:00.134Z,1.1
2022-10-07T02:02:06.014Z,1.1
2022-10-07T02:03:10.092Z,1.1
2022-10-07T02:04:10.208Z,1.1
2022-10-07T02:05:10.100Z,1.1
2022-10-07T02:06:05.331Z,1.1
2022-10-07T02:07:10.093Z,1.1
2022-10-07T02:08:10.088Z,1.8
2022-10-07T02:09:02.159Z,1.8
2022-10-07T02:10:10.096Z,1.8
2022-10-07T02:11:09.151Z,1.8
2022-10-07T02:12:10.092Z,1.8
2022-10-07T02:13:10.091Z,1.8
2022-10-07T02:14:10.095Z,1.8
2022-10-07T02:15:00.148Z,1.8
2022-10-07T02:16:10.508Z,1.8
2022-10-07T02:17:02.247Z,1.8
2022-10-07T02:18:02.292Z,1.8
2022-10-07T02:19:02.188Z,1.8
2022-10-07T02:20:01.686Z,1.8
2022-10-07T02:21:03.800Z,1.8
2022-10-07T02:22:00.899Z,1.8
2022-10-07T02:23:01.326Z,1.8
2022-10-07T02:24:00.896Z,1.8
2022-10-07T02:25:00.150Z,1.8
2022-10-07T02:26:01.917Z,1.8
2022-10-07T02:27:02.461Z,1.8
2022-10-07T02:28:01.567Z,1.1
2022-10-07T02:29:03.143Z,1.1
2022-10-07T02:30:04.044Z,1.1
2022-10-07T02:31:02.363Z,1.1
2022-10-07T02:32:02.799Z,1.1
2022-10-07T02:33:01.240Z,1.1
2022-10-07T02:34:01.979Z,1.1
2022-10-07T02:35:04.180Z,1.1
2022-10-07T02:36:03.141Z,1.1
2022-10-07T02:37:01.940Z,1.1
2022-10-07T02:38:03.537Z,1.1
2022-10-07T02:39:00.534Z,1.1
2022-10-07T02:40:00.944Z,1.1
2022-10-07T02:41:06.039Z,1.1
2022-10-07T02:42:03.578Z,1.1
2022-10-07T02:43:07.223Z,1.1
2022-10-07T02:44:03.384Z,1.1
2022-10-07T02:45:08.162Z,1.1
2022-10-07T02:46:03.104Z,1.1
2022-10-07T02:47:00.211Z,1.1
2022-10-07T02:48:03.963Z,1.1
2022-10-07T02:49:03.286Z,1.1
2022-10-07T02:50:03.459Z,1.1
2022-10-07T02:51:03.794Z,1.1
2022-10-07T02:52:10.097Z,1.1
2022-10-07T02:53:01.170Z,1.1
2022-10-07T02:54:01.684Z,1.1
2022-10-07T02:55:02.818Z,1.1
2022-10-07T02:56:01.105Z,1.1
2022-10-07T02:57:00.853Z,1.1
2022-10-07T02:58:03.209Z,1.1
2022-10-07T02:59:00.934Z,1.1
2022-10-07T03:00:00.838Z,1.1
2022-10-07T03:01:01.821Z,1.1
2022-10-07T03:02:01.906Z,1.1
2022-10-07T03:03:00.964Z,1.1
2022-10-07T03:04:00.253Z,1.1
2022-10-07T03:05:00.162Z,1.1
2022-10-07T03:06:00.198Z,1.1
2022-10-07T03:07:00.185Z,1.1
2022-10-07T03:08:02.495Z,1.0
2022-10-07T03:09:00.546Z,1.0
2022-10-07T03:10:00.725Z,1.0
2022-10-07T03:11:00.150Z,1.0
2022-10-07T03:12:00.162Z,1.0
2022-10-07T03:13:00.184Z,1.0
2022-10-07T03:14:00.149Z,1.0
2022-10-07T03:15:00.149Z,1.0
2022-10-07T03:16:00.634Z,1.0
2022-10-07T03:17:00.669Z,1.0
2022-10-07T03:18:00.155Z,1.0
2022-10-07T03:19:00.248Z,1.0
2022-10-07T03:20:00.156Z,1.0
2022-10-07T03:21:00.161Z,1.0
2022-10-07T03:22:00.144Z,1.0
2022-10-07T03:23:00.159Z,1.0
2022-10-07T03:24:00.161Z,1.0
2022-10-07T03:25:00.190Z,1.0
2022-10-07T03:26:00.175Z,1.0
2022-10-07T03:27:00.154Z,1.0
2022-10-07T03:28:00.216Z,1.0
2022-10-07T03:29:00.469Z,1.0
2022-10-07T03:30:00.168Z,1.0
2022-10-07T03:31:08.343Z,1.0
2022-10-07T03:32:00.238Z,1.0
2022-10-07T03:33:00.157Z,1.0
2022-10-07T03:34:00.161Z,1.0
2022-10-07T03:35:00.152Z,1.0
2022-10-07T03:36:00.164Z,1.0
2022-10-07T03:37:00.163Z,1.0
2022-10-07T03:38:00.149Z,1.0
2022-10-07T03:39:00.146Z,1.0
2022-10-07T03:40:00.176Z,1.0
2022-10-07T03:41:00.394Z,1.0
2022-10-07T03:42:00.162Z,1.0
2022-10-07T03:43:00.293Z,1.0
2022-10-07T03:44:00.150Z,1.0
2022-10-07T03:45:00.151Z,1.0
2022-10-07T03:46:00.221Z,1.0
2022-10-07T03:47:00.221Z,1.0
2022-10-07T03:48:00.154Z,1.2
2022-10-07T03:49:00.220Z,1.2
2022-10-07T03:50:00.150Z,1.2
2022-10-07T03:51:00.556Z,1.2
2022-10-07T03:52:00.339Z,1.2
2022-10-07T03:53:00.155Z,1.2
2022-10-07T03:54:00.173Z,1.2
2022-10-07T03:55:00.152Z,1.2
2022-10-07T03:56:00.160Z,1.2
2022-10-07T03:57:00.202Z,1.2
2022-10-07T03:58:00.153Z,1.2
2022-10-07T03:59:00.616Z,1.2
2022-10-07T04:00:00.178Z,1.2
2022-10-07T04:01:08.928Z,1.2
2022-10-07T04:02:00.321Z,1.2
2022-10-07T04:03:00.245Z,1.2
2022-10-07T04:04:00.461Z,1.2
2022-10-07T04:05:00.150Z,1.2
2022-10-07T04:06:00.427Z,1.2
2022-10-07T04:07:00.149Z,1.2
2022-10-07T04:08:00.367Z,1.3
2022-10-07T04:09:00.153Z,1.3
2022-10-07T04:10:00.187Z,1.3
2022-10-07T04:11:00.998Z,1.3
2022-10-07T04:12:00.144Z,1.3
2022-10-07T04:13:00.155Z,1.3
2022-10-07T04:14:00.223Z,1.3
2022-10-07T04:15:00.159Z,1.3
2022-10-07T04:16:04.631Z,1.3
2022-10-07T04:17:00.153Z,1.3
2022-10-07T04:18:00.149Z,1.3
2022-10-07T04:19:00.240Z,1.3
2022-10-07T04:20:00.166Z,1.3
2022-10-07T04:21:00.280Z,1.3
2022-10-07T04:22:02.887Z,1.3
2022-10-07T04:23:00.144Z,1.3
2022-10-07T04:24:00.196Z,1.3
2022-10-07T04:25:00.153Z,1.3
2022-10-07T04:26:00.198Z,1.3
2022-10-07T04:27:00.159Z,1.3
2022-10-07T04:28:01.857Z,1.2
2022-10-07T04:29:00.194Z,1.2
2022-10-07T04:30:00.163Z,1.2
2022-10-07T04:31:02.394Z,1.2
2022-10-07T04:32:00.157Z,1.2
2022-10-07T04:33:00.704Z,1.2
2022-10-07T04:34:00.154Z,1.2
2022-10-07T04:35:00.148Z,1.2
2022-10-07T04:36:03.905Z,1.2
2022-10-07T04:37:00.148Z,1.2
2022-10-07T04:38:00.146Z,1.2
2022-10-07T04:39:00.155Z,1.2
2022-10-07T04:40:01.261Z,1.2
2022-10-07T04:41:02.762Z,1.2
2022-10-07T04:42:00.150Z,1.2
2022-10-07T04:43:00.151Z,1.2
2022-10-07T04:44:00.202Z,1.2
2022-10-07T04:45:00.170Z,1.2
2022-10-07T04:46:01.150Z,1.2
2022-10-07T04:47:00.292Z,1.2
2022-10-07T04:48:00.452Z,1.2
2022-10-07T04:49:00.155Z,1.2
2022-10-07T04:50:01.059Z,1.2
2022-10-07T04:51:01.150Z,1.2
2022-10-07T04:52:00.149Z,1.2
2022-10-07T04:53:00.161Z,1.2
2022-10-07T04:54:00.159Z,1.2
2022-10-07T04:55:00.163Z,1.2
2022-10-07T04:56:00.410Z,1.2
2022-10-07T04:57:00.149Z,1.2
2022-10-07T04:58:00.166Z,1.2
2022-10-07T04:59:00.148Z,1.2
2022-10-07T05:00:00.168Z,1.2
2022-10-07T05:01:00.310Z,1.2
2022-10-07T05:02:00.248Z,1.2
2022-10-07T05:03:00.510Z,1.2
2022-10-07T05:04:00.154Z,1.2
2022-10-07T05:05:00.183Z,1.2
2022-10-07T05:06:05.171Z,1.2
2022-10-07T05:07:00.150Z,1.1
2022-10-07T05:08:00.217Z,1.1
2022-10-07T05:09:00.155Z,1.1
2022-10-07T05:10:00.150Z,1.1
2022-10-07T05:11:00.946Z,1.1
2022-10-07T05:12:00.148Z,1.1
2022-10-07T05:13:00.159Z,1.1
2022-10-07T05:14:00.154Z,1.1
2022-10-07T05:15:00.149Z,1.1
2022-10-07T05:16:00.913Z,1.1
2022-10-07T05:17:00.180Z,1.1
2022-10-07T05:18:00.175Z,1.1
2022-10-07T05:19:00.160Z,1.1
2022-10-07T05:20:00.429Z,1.1
2022-10-07T05:21:03.419Z,1.1
2022-10-07T05:22:00.444Z,1.1
2022-10-07T05:23:00.169Z,1.1
2022-10-07T05:24:00.148Z,1.1
2022-10-07T05:25:00.161Z,1.1
2022-10-07T05:26:01.270Z,1.1
2022-10-07T05:27:00.148Z,1.3
2022-10-07T05:28:00.212Z,1.3
2022-10-07T05:29:00.151Z,1.3
2022-10-07T05:30:00.177Z,1.3
2022-10-07T05:31:01.032Z,1.3
2022-10-07T05:32:04.712Z,1.3
2022-10-07T05:33:00.147Z,1.3
2022-10-07T05:34:00.170Z,1.3
2022-10-07T05:35:00.178Z,1.3
2022-10-07T05:36:00.178Z,1.3
2022-10-07T05:37:00.149Z,1.3
2022-10-07T05:38:00.331Z,1.3
2022-10-07T05:39:00.153Z,1.3
2022-10-07T05:40:00.181Z,1.3
2022-10-07T05:41:01.499Z,1.3
2022-10-07T05:42:00.146Z,1.3
2022-10-07T05:43:00.142Z,1.3
2022-10-07T05:44:00.191Z,1.3
2022-10-07T05:45:00.153Z,1.3
2022-10-07T05:46:01.608Z,1.3
2022-10-07T05:47:00.156Z,1.4
2022-10-07T05:48:00.154Z,1.4
2022-10-07T05:49:00.154Z,1.4
2022-10-07T05:50:00.162Z,1.4
2022-10-07T05:51:00.338Z,1.4
2022-10-07T05:52:00.293Z,1.4
2022-10-07T05:53:00.158Z,1.4
2022-10-07T05:54:00.198Z,1.4
2022-10-07T05:55:00.218Z,1.4
2022-10-07T05:56:08.398Z,1.4
2022-10-07T05:57:00.158Z,1.4
2022-10-07T05:58:00.153Z,1.4
2022-10-07T05:59:00.191Z,1.4
2022-10-07T06:00:00.153Z,1.4
2022-10-07T06:01:05.362Z,1.4
2022-10-07T06:02:00.479Z,1.4
2022-10-07T06:03:00.312Z,1.4
2022-10-07T06:06:00.187Z,1.4
2022-10-07T06:07:00.154Z,1.5
2022-10-07T06:08:00.160Z,1.5
2022-10-07T06:09:00.218Z,1.5
2022-10-07T06:10:00.178Z,1.5
2022-10-07T06:11:01.121Z,1.5
2022-10-07T06:12:00.157Z,1.5
2022-10-07T06:13:00.158Z,1.5
2022-10-07T06:14:00.445Z,1.5
2022-10-07T06:15:00.152Z,1.5
2022-10-07T06:16:01.082Z,1.5
2022-10-07T06:17:00.311Z,1.5
2022-10-07T06:18:00.166Z,1.5
2022-10-07T06:19:00.170Z,1.5
2022-10-07T06:20:00.262Z,1.5
2022-10-07T06:21:00.159Z,1.5
2022-10-07T06:22:00.179Z,1.5
2022-10-07T06:23:00.165Z,1.5
2022-10-07T06:24:00.156Z,1.5
2022-10-07T06:25:00.158Z,1.5
2022-10-07T06:26:02.626Z,1.5
2022-10-07T06:27:00.152Z,1.3
2022-10-07T06:28:00.259Z,1.3
2022-10-07T06:29:00.156Z,1.3
2022-10-07T06:30:00.411Z,1.3
2022-10-07T06:31:02.918Z,1.3
2022-10-07T06:32:00.165Z,1.3
2022-10-07T06:33:00.162Z,1.3
2022-10-07T06:34:00.331Z,1.3
2022-10-07T06:35:00.260Z,1.3
2022-10-07T06:36:04.613Z,1.3
2022-10-07T06:37:00.166Z,1.3
2022-10-07T06:38:00.152Z,1.3
2022-10-07T06:39:00.151Z,1.3
2022-10-07T06:40:00.169Z,1.3
2022-10-07T06:41:01.061Z,1.3
2022-10-07T06:42:00.158Z,1.3
2022-10-07T06:43:00.155Z,1.3
2022-10-07T06:44:00.192Z,1.3
2022-10-07T06:45:00.160Z,1.3
2022-10-07T06:46:01.366Z,1.3
2022-10-07T06:47:00.165Z,1.1
2022-10-07T06:48:00.426Z,1.1
2022-10-07T06:49:00.184Z,1.1
2022-10-07T06:50:00.166Z,1.1
2022-10-07T06:51:01.009Z,1.1
2022-10-07T06:52:00.147Z,1.1
2022-10-07T06:53:00.149Z,1.1
2022-10-07T06:54:00.169Z,1.1
2022-10-07T06:55:00.158Z,1.1
2022-10-07T06:56:02.016Z,1.1
2022-10-07T06:57:00.155Z,1.1
2022-10-07T06:58:00.487Z,1.1
2022-10-07T06:59:00.157Z,1.1
2022-10-07T07:00:00.174Z,1.1
2022-10-07T07:01:00.239Z,1.1
2022-10-07T07:02:00.203Z,1.1
2022-10-07T07:03:00.157Z,1.1
2022-10-07T07:04:00.217Z,1.1
2022-10-07T07:05:00.267Z,1.1
2022-10-07T07:06:00.178Z,1.1
2022-10-07T07:07:00.191Z,1.2
2022-10-07T07:08:00.159Z,1.2
2022-10-07T07:09:00.157Z,1.2
2022-10-07T07:10:00.228Z,1.2
2022-10-07T07:11:04.464Z,1.2
2022-10-07T07:12:00.150Z,1.2
2022-10-07T07:14:00.222Z,1.2
2022-10-07T07:15:00.161Z,1.2
2022-10-07T07:16:00.234Z,1.2
2022-10-07T07:17:00.252Z,1.2
2022-10-07T07:18:00.197Z,1.2
2022-10-07T07:19:01.550Z,1.2
2022-10-07T07:20:00.203Z,1.2
2022-10-07T07:21:02.357Z,1.2
2022-10-07T07:22:00.149Z,1.2
2022-10-07T07:23:00.681Z,1.2
2022-10-07T07:24:00.731Z,1.2
2022-10-07T07:25:00.171Z,1.2
2022-10-07T07:26:00.154Z,1.2
2022-10-07T07:27:00.164Z,1.1
2022-10-07T07:28:00.226Z,1.1
2022-10-07T07:29:01.149Z,1.1
2022-10-07T07:30:00.161Z,1.1
2022-10-07T07:31:04.665Z,1.1
2022-10-07T07:32:00.175Z,1.1
2022-10-07T07:33:00.373Z,1.1
2022-10-07T07:34:01.229Z,1.1
2022-10-07T07:35:00.212Z,1.1
2022-10-07T07:36:00.153Z,1.1
2022-10-07T07:37:00.156Z,1.1
2022-10-07T07:38:00.365Z,1.1
2022-10-07T07:39:01.534Z,1.1
2022-10-07T07:40:00.164Z,1.1
2022-10-07T07:41:03.468Z,1.1
2022-10-07T07:42:00.164Z,1.1
2022-10-07T07:43:00.153Z,1.1
2022-10-07T07:44:01.625Z,1.1
2022-10-07T07:45:00.164Z,1.1
2022-10-07T07:46:00.221Z,1.1
2022-10-07T07:47:00.154Z,1.0
2022-10-07T07:48:00.149Z,1.0
2022-10-07T07:49:00.148Z,1.0
2022-10-07T07:50:00.621Z,1.0
2022-10-07T07:51:00.169Z,1.0
2022-10-07T07:52:00.477Z,1.0
2022-10-07T07:53:00.184Z,1.0
2022-10-07T08:07:00.156Z,1.3
2022-10-07T08:08:00.159Z,1.3
2022-10-07T08:09:00.281Z,1.3
2022-10-07T08:10:00.297Z,1.3
2022-10-07T08:11:07.694Z,1.3
2022-10-07T08:12:00.149Z,1.3
2022-10-07T08:13:00.167Z,1.3
2022-10-07T08:14:00.265Z,1.3
2022-10-07T08:15:00.155Z,1.3
2022-10-07T08:16:00.275Z,1.3
2022-10-07T08:17:00.156Z,1.3
2022-10-07T08:18:00.307Z,1.3
2022-10-07T08:19:00.141Z,1.3
2022-10-07T08:20:00.144Z,1.3
2022-10-07T08:21:01.689Z,1.3
2022-10-07T08:22:00.145Z,1.3
2022-10-07T08:23:00.158Z,1.3
2022-10-07T08:24:01.169Z,1.3
2022-10-07T08:25:00.190Z,1.3
2022-10-07T08:26:00.264Z,1.3
2022-10-07T08:27:00.150Z,0.7
2022-10-07T08:28:00.220Z,0.7
2022-10-07T08:29:00.609Z,0.7
2022-10-07T08:30:00.157Z,0.7
2022-10-07T08:31:01.322Z,0.7
2022-10-07T08:32:00.155Z,0.7
2022-10-07T08:33:01.494Z,0.7
2022-10-07T08:34:01.094Z,0.7
2022-10-07T08:36:01.039Z,0.7
2022-10-07T08:37:00.172Z,0.7
2022-10-07T08:38:00.159Z,0.7
2022-10-07T08:41:09.945Z,0.7
2022-10-07T08:42:03.314Z,0.7
2022-10-07T09:12:02.449Z,0.7
2022-10-07T09:15:01.898Z,0.7
2022-10-07T09:16:03.798Z,0.7
2022-10-07T09:17:04.548Z,0.7
2022-10-07T09:42:00.593Z,0.6
2022-10-07T09:46:00.352Z,0.6
2022-10-07T09:47:10.088Z,0.6
2022-10-07T09:48:01.991Z,0.6
2022-10-07T09:49:01.169Z,0.6
2022-10-07T09:50:00.157Z,0.6
2022-10-07T09:52:05.568Z,0.6
2022-10-07T09:53:00.555Z,0.6
2022-10-07T09:54:01.979Z,0.6
2022-10-07T09:55:10.102Z,0.6
2022-10-07T09:56:00.149Z,0.6
2022-10-07T09:59:10.087Z,0.6
2022-10-07T10:00:10.101Z,0.6
2022-10-07T10:10:02.040Z,0.4
2022-10-07T10:11:01.490Z,0.4
2022-10-07T10:12:10.099Z,0.4
2022-10-07T10:13:01.359Z,0.4
2022-10-07T10:15:00.452Z,0.4
2022-10-07T10:16:01.392Z,0.4
2022-10-07T10:17:03.280Z,0.4
2022-10-07T10:18:00.551Z,0.4
2022-10-07T10:19:01.479Z,0.4
2022-10-07T10:20:10.095Z,0.4
2022-10-07T10:21:10.090Z,0.4
2022-10-07T10:22:00.213Z,0.4
2022-10-07T10:26:07.524Z,0.4
2022-10-07T10:27:03.412Z,0.4
2022-10-07T10:28:10.149Z,0.4
2022-10-07T10:29:10.091Z,0.4
2022-10-07T10:30:01.743Z,0.4
2022-10-07T10:31:06.318Z,0.4
2022-10-07T10:32:00.131Z,0.4
2022-10-07T10:33:08.566Z,0.4
2022-10-07T10:34:08.558Z,0.4
2022-10-07T10:35:10.108Z,0.4
2022-10-07T10:36:08.502Z,0.4
2022-10-07T10:37:11.086Z,0.4
2022-10-07T10:38:07.784Z,0.4
2022-10-07T10:39:02.557Z,0.4
2022-10-07T10:40:06.018Z,0.4
2022-10-07T10:46:10.172Z,0.4
2022-10-07T10:47:10.088Z,0.4
2022-10-07T10:48:00.137Z,0.4
2022-10-07T10:49:08.600Z,0.4
2022-10-07T10:50:10.081Z,0.4
2022-10-07T10:51:10.094Z,0.4
2022-10-07T10:52:00.133Z,0.4
2022-10-07T10:53:10.092Z,0.4
2022-10-07T10:54:09.957Z,0.4
2022-10-07T10:55:10.090Z,0.4
2022-10-07T10:56:06.156Z,0.4
2022-10-07T10:57:04.085Z,0.4
2022-10-07T11:06:02.613Z,0.9
2022-10-07T11:07:06.250Z,0.9
2022-10-07T11:08:08.349Z,0.9
2022-10-07T11:09:01.149Z,0.9
2022-10-07T11:10:10.097Z,0.9
2022-10-07T11:11:03.903Z,0.9
2022-10-07T11:12:02.136Z,0.9
2022-10-07T11:13:10.097Z,0.9
2022-10-07T11:14:03.855Z,0.9
2022-10-07T11:15:04.518Z,0.9
2022-10-07T11:16:04.214Z,0.9
2022-10-07T11:17:02.891Z,0.9
2022-10-07T11:18:02.856Z,0.9
2022-10-07T11:19:04.354Z,0.9
2022-10-07T11:20:10.103Z,0.9
2022-10-07T11:21:02.752Z,0.9
2022-10-07T11:22:00.985Z,0.9
2022-10-07T11:23:02.387Z,0.9
2022-10-07T11:24:03.507Z,0.9
2022-10-07T11:25:06.597Z,0.9
2022-10-07T11:26:03.686Z,0.3
2022-10-07T11:27:01.140Z,0.3
2022-10-07T11:28:06.655Z,0.3
2022-10-07T11:29:03.070Z,0.3
2022-10-07T11:30:03.405Z,0.3
2022-10-07T11:31:01.234Z,0.3
2022-10-07T11:32:00.131Z,0.3
2022-10-07T11:33:05.568Z,0.3
2022-10-07T11:34:10.100Z,0.3
2022-10-07T11:35:10.099Z,0.3
2022-10-07T11:36:06.039Z,0.3
2022-10-07T11:37:03.857Z,0.3
2022-10-07T11:38:10.089Z,0.3
2022-10-07T11:39:00.160Z,0.3
2022-10-07T11:40:03.273Z,0.3
2022-10-07T11:41:05.381Z,0.3
2022-10-07T11:42:06.425Z,0.3
2022-10-07T11:43:05.625Z,0.3
2022-10-07T11:44:06.624Z,0.3
2022-10-07T11:45:04.108Z,0.3
2022-10-07T11:46:05.759Z,0.3
2022-10-07T11:47:01.909Z,0.3
2022-10-07T11:48:03.135Z,0.3
2022-10-07T11:49:10.090Z,0.3
2022-10-07T11:50:00.227Z,0.3
2022-10-07T11:51:01.808Z,0.3
2022-10-07T11:52:04.616Z,0.3
2022-10-07T11:53:04.132Z,0.3
2022-10-07T11:54:01.934Z,0.3
2022-10-07T11:55:09.553Z,0.3
2022-10-07T11:56:03.129Z,0.3
2022-10-07T11:57:00.281Z,0.3
2022-10-07T11:58:02.080Z,0.3
2022-10-07T11:59:02.442Z,0.3
2022-10-07T12:00:10.113Z,0.3
2022-10-07T12:01:10.086Z,0.3
2022-10-07T12:02:00.577Z,0.3
2022-10-07T12:03:10.145Z,0.3
2022-10-07T12:04:10.096Z,0.3
2022-10-07T12:05:01.019Z,0.3
2022-10-07T12:06:08.503Z,0.5
2022-10-07T12:07:10.093Z,0.5
2022-10-07T12:08:10.096Z,0.5
2022-10-07T12:09:10.096Z,0.5
2022-10-07T12:10:00.143Z,0.5
2022-10-07T12:11:10.104Z,0.5
2022-10-07T12:12:00.152Z,0.5
2022-10-07T12:13:10.092Z,0.5
2022-10-07T12:14:10.089Z,0.5
2022-10-07T12:15:01.403Z,0.5
2022-10-07T12:16:10.126Z,0.5
2022-10-07T12:17:09.821Z,0.5
2022-10-07T12:18:03.398Z,0.5
2022-10-07T12:19:03.405Z,0.5
2022-10-07T12:20:10.098Z,0.5
2022-10-07T12:21:01.773Z,0.5
2022-10-07T12:22:00.170Z,0.5
2022-10-07T12:23:10.108Z,0.5
2022-10-07T12:49:10.168Z,0.3
2022-10-07T13:26:00.984Z,0.2
2022-10-07T13:27:00.258Z,0.2
2022-10-07T13:28:00.376Z,0.2
2022-10-07T13:29:00.580Z,0.2
2022-10-07T13:30:01.131Z,0.2
2022-10-07T13:31:10.202Z,0.2
2022-10-07T13:46:00.868Z,0.2
2022-10-07T13:47:02.287Z,0.2
2022-10-07T13:48:00.354Z,0.2
2022-10-07T13:49:01.406Z,0.2
2022-10-07T13:51:01.197Z,0.2
2022-10-07T13:53:00.342Z,0.2
2022-10-07T13:55:00.477Z,0.2
2022-10-07T14:02:00.450Z,0.2
2022-10-07T14:06:00.432Z,0.3
2022-10-07T14:07:07.033Z,0.3
2022-10-07T14:26:01.890Z,0.2
2022-10-07T14:27:00.252Z,0.2
2022-10-07T14:28:01.319Z,0.2
2022-10-07T14:29:10.920Z,0.2
2022-10-07T14:30:00.287Z,0.2
2022-10-07T14:31:03.543Z,0.2
2022-10-07T14:32:08.437Z,0.2
2022-10-07T14:33:10.154Z,0.2
2022-10-07T14:34:10.167Z,0.2
2022-10-07T14:35:10.243Z,0.2
2022-10-07T14:36:10.175Z,0.2
2022-10-07T14:37:00.232Z,0.2
2022-10-07T14:38:10.169Z,0.2
2022-10-07T14:39:10.164Z,0.2
2022-10-07T14:40:00.249Z,0.2
2022-10-07T14:41:00.383Z,0.2
2022-10-07T14:42:00.470Z,0.2
2022-10-07T14:43:00.800Z,0.2
2022-10-07T14:44:01.309Z,0.2
2022-10-07T14:45:01.437Z,0.2
2022-10-07T14:46:10.253Z,0.2
2022-10-07T14:47:02.012Z,0.2
2022-10-07T14:48:00.260Z,0.2
2022-10-07T14:49:00.318Z,0.2
2022-10-07T14:50:00.266Z,0.2
2022-10-07T14:51:00.267Z,0.2
2022-10-07T14:52:00.340Z,0.2
2022-10-07T14:53:00.276Z,0.2
2022-10-07T14:54:02.504Z,0.2
2022-10-07T14:55:02.582Z,0.2
2022-10-07T14:56:00.356Z,0.2
2022-10-07T14:57:00.306Z,0.2
2022-10-07T14:58:00.261Z,0.2
2022-10-07T14:59:00.432Z,0.2
2022-10-07T15:00:00.427Z,0.2
2022-10-07T15:01:00.292Z,0.2
2022-10-07T15:02:00.266Z,0.2
2022-10-07T15:03:00.312Z,0.2
2022-10-07T15:04:00.412Z,0.2
2022-10-07T15:05:00.418Z,0.2
2022-10-07T15:06:00.271Z,0.6
2022-10-07T15:07:00.249Z,0.6
2022-10-07T15:08:00.433Z,0.6
2022-10-07T15:09:00.301Z,0.6
2022-10-07T15:10:00.304Z,0.6
2022-10-07T15:11:00.267Z,0.6
2022-10-07T15:12:00.285Z,0.6
2022-10-07T15:13:00.500Z,0.6
2022-10-07T15:14:00.275Z,0.6
2022-10-07T15:15:00.253Z,0.6
2022-10-07T15:16:00.287Z,0.6
2022-10-07T15:17:00.367Z,0.6
2022-10-07T15:18:00.258Z,0.6
2022-10-07T15:19:00.342Z,0.6
2022-10-07T15:20:00.302Z,0.6
2022-10-07T15:21:00.262Z,0.6
2022-10-07T15:22:00.402Z,0.6
2022-10-07T15:23:00.331Z,0.6
2022-10-07T15:24:00.260Z,0.6
2022-10-07T15:25:00.522Z,0.6
2022-10-07T15:26:00.264Z,0.3
2022-10-07T15:27:00.271Z,0.3
2022-10-07T15:28:00.349Z,0.3
2022-10-07T15:29:00.284Z,0.3
2022-10-07T15:46:00.691Z,0.3
2022-10-07T15:47:00.266Z,0.3
2022-10-07T15:48:00.728Z,0.3
2022-10-07T15:49:00.255Z,0.3
2022-10-07T15:50:00.284Z,0.3
2022-10-07T15:51:00.263Z,0.3
2022-10-07T15:52:00.396Z,0.3
2022-10-07T15:53:00.255Z,0.3
2022-10-07T15:54:00.257Z,0.3
2022-10-07T15:55:05.070Z,0.3
2022-10-07T15:56:00.263Z,0.3
2022-10-07T15:57:00.634Z,0.3
2022-10-07T15:58:00.281Z,0.3
2022-10-07T15:59:00.508Z,0.3
2022-10-07T16:00:00.252Z,0.3
2022-10-07T16:01:02.626Z,0.3
2022-10-07T16:02:00.323Z,0.3
2022-10-07T16:03:00.341Z,0.3
2022-10-07T16:04:01.083Z,0.3
2022-10-07T16:05:00.243Z,0.3
2022-10-07T16:06:01.267Z,0.3
2022-10-07T16:07:00.232Z,0.3
2022-10-07T16:08:00.236Z,0.3
2022-10-07T16:09:00.627Z,0.3
2022-10-07T16:10:00.257Z,0.3
2022-10-07T16:11:00.969Z,0.3
2022-10-07T16:12:00.227Z,0.3
2022-10-07T16:13:00.223Z,0.3
2022-10-07T16:14:00.630Z,0.3
2022-10-07T16:15:00.246Z,0.3
2022-10-07T16:16:02.107Z,0.3
2022-10-07T16:17:00.285Z,0.3
2022-10-07T16:18:00.227Z,0.3
2022-10-07T16:19:00.621Z,0.3
2022-10-07T16:20:00.300Z,0.3
2022-10-07T16:21:01.427Z,0.3
2022-10-07T16:22:00.223Z,0.3
2022-10-07T16:23:00.254Z,0.3
2022-10-07T16:24:02.257Z,0.3
2022-10-07T16:25:00.325Z,0.3
2022-10-07T16:26:02.002Z,0.2
2022-10-07T16:27:00.320Z,0.2
2022-10-07T16:28:00.282Z,0.2
2022-10-07T16:29:02.208Z,0.2
2022-10-07T16:30:00.271Z,0.2
2022-10-07T16:31:00.312Z,0.2
2022-10-07T16:32:00.401Z,0.2
2022-10-07T16:33:00.248Z,0.2
2022-10-07T16:34:00.501Z,0.2
2022-10-07T16:35:00.255Z,0.2
2022-10-07T16:36:08.494Z,0.2
2022-10-07T16:37:00.343Z,0.2
2022-10-07T16:38:00.247Z,0.2
2022-10-07T16:39:01.012Z,0.2
2022-10-07T16:40:00.283Z,0.2
2022-10-07T16:41:00.310Z,0.2
2022-10-07T16:42:00.315Z,0.2
2022-10-07T16:43:00.329Z,0.2
2022-10-07T16:44:00.740Z,0.2
2022-10-07T16:45:00.262Z,0.2
2022-10-07T16:46:01.263Z,0.3
2022-10-07T16:47:00.297Z,0.3
2022-10-07T16:48:00.285Z,0.3
2022-10-07T16:49:00.284Z,0.3
2022-10-07T16:50:00.261Z,0.3
2022-10-07T16:51:00.259Z,0.3
2022-10-07T16:52:00.285Z,0.3
2022-10-07T16:53:00.314Z,0.3
2022-10-07T16:54:01.165Z,0.3
2022-10-07T16:55:00.317Z,0.3
2022-10-07T16:56:00.936Z,0.3
2022-10-07T16:57:00.260Z,0.3
2022-10-07T16:58:00.261Z,0.3
2022-10-07T16:59:01.305Z,0.3
2022-10-07T17:00:00.303Z,0.3
2022-10-07T17:01:02.143Z,0.3
2022-10-07T17:02:00.377Z,0.3
2022-10-07T17:03:00.253Z,0.3
2022-10-07T17:04:00.535Z,0.3
2022-10-07T17:05:00.234Z,0.4
2022-10-07T17:06:00.437Z,0.4
2022-10-07T17:07:00.239Z,0.4
2022-10-07T17:08:00.228Z,0.4
2022-10-07T17:09:00.641Z,0.4
2022-10-07T17:10:00.320Z,0.4
2022-10-07T17:11:00.258Z,0.4
2022-10-07T17:12:00.224Z,0.4
2022-10-07T17:13:00.240Z,0.4
2022-10-07T17:14:04.797Z,0.4
2022-10-07T17:15:00.240Z,0.4
2022-10-07T17:16:00.387Z,0.4
2022-10-07T17:17:00.230Z,0.4
2022-10-07T17:18:00.288Z,0.4
2022-10-07T17:19:00.228Z,0.4
2022-10-07T17:20:00.263Z,0.4
2022-10-07T17:21:00.227Z,0.4
2022-10-07T17:22:00.238Z,0.4
2022-10-07T17:23:00.299Z,0.4
2022-10-07T17:24:00.317Z,0.4
2022-10-07T17:25:00.225Z,0.4
2022-10-07T17:26:02.982Z,0.4
2022-10-07T17:27:00.237Z,0.4
2022-10-07T17:28:00.272Z,0.4
2022-10-07T17:29:02.917Z,0.4
2022-10-07T17:30:00.402Z,0.4
2022-10-07T17:31:10.266Z,0.4
2022-10-07T17:32:00.248Z,0.4
2022-10-07T17:33:00.227Z,0.4